Aérodrome :
LOGIN :

S'inscrire | Disclaimer

   EN    FR    IT 

 










Légende :    VFR   VFR Marginal   IFR   IFR Intensif   IFR Très Intensif
Visi : 
Plafond : 
>= 8 km
>= 3000ft
5 à 8 km
1000 à 3000 ft
1500m à 5 km
500 à 1000 ft
800 à 1500m
200 à 500 ft
< 800m
< 200 ft
Symboles :   Orages  Brouillard  Fortes neiges  Fortes précipitations  Vent > 20 kt
SIGMETs :   Divers  Orages  Givrage  Turbulence  Onde Orograph.  Cendres Volcan.







- Altitude de l'aérodrome : 622 ft
- Code IATA : BRS
- Voir les cartes d'approche


EGGD - Bristol Int.

DERNIER METAR :
  • 231550Z AUTO 28024G38KT 9999 SCT038 BKN049 08/01 Q1001

METARs EXPIRÉS :
  • 231520Z AUTO 28026G36KT 9999 BKN035 BKN041 08/02 Q1000
  • 231450Z AUTO 27026KT 9999 SCT031 OVC038 08/02 Q1000
  • 231420Z AUTO 28026G39KT 9999 SCT031 OVC039 08/02 Q0999
  • 231350Z AUTO 28027G38KT 9999 BKN028 OVC045 07/03 Q0999
  • 231320Z AUTO 27028G40KT 9999 SCT026 BKN031 BKN039 08/03 Q0998
  • 231250Z AUTO 27031G45KT 9999 BKN027 08/03 Q0998

TAF TAF EGGD
Valide du 23 à 12h jusqu'au 24 à 12h UTC


231103Z 2312/2412 26028G45KT 9999 SCT025
TEMPO 2312/2315 28035G55KT
BECMG 2315/2318 29020G33KT
PROB30
TEMPO 2315/2324 7000 SHRA
BECMG 2320/2323 28015KT
ATIS : +44 1275 473 666
Pas de NOTAMs connus pour ce terrain.
2 SIGMETs publiés pour la FIR London (EGTT) :
 
Onde orographique forte
EGTT SIGMET 08 VALID 231500/231900 EGRR
EGTT LONDON FIR SEV MTW FCST S OF N5332 AND E OF W00346 FL060/200 STNR WKN=
Turbulence forte
EGTT SIGMET 07 VALID 231500/231900 EGRR
EGTT LONDON FIR SEV TURB FCST WI N5345 E00355 - N5130 E00200 - N5100 E00128 - N5040 E00128 - N5000 W00015 - N5000 W00200 - N4950 W00240 - N5220 W00530 - N5345 W00530 - N5345 E00355 SFC/FL060 MOV E 40KT NC=



MET'MAP, la Météo Aéronautique d'un coup d'oeil ! - Copyright ORBIFLY Décembre 2007 - Disclaimer

ORBIFLY MET'MAP TEAM :

Programmation & Développement : Alexandra Zaïnal
Conception & Développement : Baudouin d'Aumeries
Co-Programmation & Développement : Marc-Olivier Méhu
Soutien technique & logistique : Manuel Goepfert

Contact : metmap@orbifly.com




SOURCES & CREDITS :

   NOAA